sensor_id;sensor_type;location;lat;lon;timestamp;P1;durP1;ratioP1;P2;durP2;ratioP2
58950;SDS011;44730;53.158;6.398;2022-10-26T00:03:50;14.57;;;9.82;;
58950;SDS011;44730;53.158;6.398;2022-10-26T00:06:19;20.17;;;10.48;;
58950;SDS011;44730;53.158;6.398;2022-10-26T00:08:48;16.55;;;9.70;;
58950;SDS011;44730;53.158;6.398;2022-10-26T00:11:14;12.98;;;9.32;;
58950;SDS011;44730;53.158;6.398;2022-10-26T00:13:40;15.27;;;9.80;;
58950;SDS011;44730;53.158;6.398;2022-10-26T00:16:14;14.48;;;9.38;;
58950;SDS011;44730;53.158;6.398;2022-10-26T00:18:48;14.13;;;9.43;;
58950;SDS011;44730;53.158;6.398;2022-10-26T00:21:14;15.90;;;9.43;;
58950;SDS011;44730;53.158;6.398;2022-10-26T00:23:41;19.05;;;9.98;;
58950;SDS011;44730;53.158;6.398;2022-10-26T00:26:06;14.57;;;10.32;;
58950;SDS011;44730;53.158;6.398;2022-10-26T00:28:33;14.40;;;9.60;;
58950;SDS011;44730;53.158;6.398;2022-10-26T00:31:02;14.98;;;9.90;;
58950;SDS011;44730;53.158;6.398;2022-10-26T00:33:30;15.35;;;9.88;;
58950;SDS011;44730;53.158;6.398;2022-10-26T00:35:56;15.68;;;10.45;;
58950;SDS011;44730;53.158;6.398;2022-10-26T00:38:22;15.20;;;10.60;;
58950;SDS011;44730;53.158;6.398;2022-10-26T00:40:48;13.43;;;9.73;;
58950;SDS011;44730;53.158;6.398;2022-10-26T00:43:15;13.27;;;9.18;;
58950;SDS011;44730;53.158;6.398;2022-10-26T00:46:03;14.77;;;10.27;;
58950;SDS011;44730;53.158;6.398;2022-10-26T00:48:37;12.60;;;9.73;;
58950;SDS011;44730;53.158;6.398;2022-10-26T00:51:09;14.07;;;10.00;;
58950;SDS011;44730;53.158;6.398;2022-10-26T00:53:59;13.90;;;10.23;;
58950;SDS011;44730;53.158;6.398;2022-10-26T00:56:29;17.08;;;9.82;;
58950;SDS011;44730;53.158;6.398;2022-10-26T00:58:58;14.57;;;9.88;;
58950;SDS011;44730;53.158;6.398;2022-10-26T01:01:30;14.00;;;10.40;;
58950;SDS011;44730;53.158;6.398;2022-10-26T01:03:59;14.93;;;10.43;;
58950;SDS011;44730;53.158;6.398;2022-10-26T01:06:26;14.00;;;9.77;;
58950;SDS011;44730;53.158;6.398;2022-10-26T01:08:54;19.05;;;10.65;;
58950;SDS011;44730;53.158;6.398;2022-10-26T01:11:20;17.60;;;11.02;;
58950;SDS011;44730;53.158;6.398;2022-10-26T01:13:45;18.60;;;10.95;;
58950;SDS011;44730;53.158;6.398;2022-10-26T01:26:45;14.52;;;10.82;;
58950;SDS011;44730;53.158;6.398;2022-10-26T01:32:29;17.38;;;11.50;;
58950;SDS011;44730;53.158;6.398;2022-10-26T01:35:07;14.48;;;10.52;;
58950;SDS011;44730;53.158;6.398;2022-10-26T01:37:38;19.42;;;10.80;;
58950;SDS011;44730;53.158;6.398;2022-10-26T01:40:21;13.80;;;10.38;;
58950;SDS011;44730;53.158;6.398;2022-10-26T01:43:09;18.45;;;11.32;;
58950;SDS011;44730;53.158;6.398;2022-10-26T01:45:36;13.35;;;11.10;;
58950;SDS011;44730;53.158;6.398;2022-10-26T01:48:06;17.42;;;11.77;;
58950;SDS011;44730;53.158;6.398;2022-10-26T01:50:33;18.77;;;12.02;;
58950;SDS011;44730;53.158;6.398;2022-10-26T01:53:00;18.67;;;11.85;;
58950;SDS011;44730;53.158;6.398;2022-10-26T01:58:09;15.88;;;12.57;;
58950;SDS011;44730;53.158;6.398;2022-10-26T02:01:20;18.85;;;12.95;;
58950;SDS011;44730;53.158;6.398;2022-10-26T02:09:22;19.33;;;12.90;;
58950;SDS011;44730;53.158;6.398;2022-10-26T02:12:08;18.48;;;13.70;;
58950;SDS011;44730;53.158;6.398;2022-10-26T02:14:53;18.30;;;12.15;;
58950;SDS011;44730;53.158;6.398;2022-10-26T02:17:34;16.13;;;11.60;;
58950;SDS011;44730;53.158;6.398;2022-10-26T02:20:17;16.27;;;11.25;;
58950;SDS011;44730;53.158;6.398;2022-10-26T02:22:49;17.35;;;11.52;;
58950;SDS011;44730;53.158;6.398;2022-10-26T02:25:21;15.27;;;10.90;;
58950;SDS011;44730;53.158;6.398;2022-10-26T02:27:52;16.95;;;11.80;;
58950;SDS011;44730;53.158;6.398;2022-10-26T02:30:20;18.52;;;12.07;;
58950;SDS011;44730;53.158;6.398;2022-10-26T02:32:47;17.58;;;11.60;;
58950;SDS011;44730;53.158;6.398;2022-10-26T02:35:16;16.60;;;11.63;;
58950;SDS011;44730;53.158;6.398;2022-10-26T02:37:46;19.08;;;12.32;;
58950;SDS011;44730;53.158;6.398;2022-10-26T02:40:14;14.48;;;10.65;;
58950;SDS011;44730;53.158;6.398;2022-10-26T02:42:43;16.55;;;11.85;;
58950;SDS011;44730;53.158;6.398;2022-10-26T02:45:11;15.40;;;11.27;;
58950;SDS011;44730;53.158;6.398;2022-10-26T02:47:40;16.95;;;11.15;;
58950;SDS011;44730;53.158;6.398;2022-10-26T02:50:06;19.95;;;11.77;;
58950;SDS011;44730;53.158;6.398;2022-10-26T02:55:24;16.60;;;11.50;;
58950;SDS011;44730;53.158;6.398;2022-10-26T02:58:01;17.42;;;12.07;;
58950;SDS011;44730;53.158;6.398;2022-10-26T03:00:30;16.60;;;12.00;;
58950;SDS011;44730;53.158;6.398;2022-10-26T03:02:59;17.65;;;11.77;;
58950;SDS011;44730;53.158;6.398;2022-10-26T03:05:31;15.73;;;11.13;;
58950;SDS011;44730;53.158;6.398;2022-10-26T03:07:57;16.17;;;11.40;;
58950;SDS011;44730;53.158;6.398;2022-10-26T03:10:24;21.50;;;12.52;;
58950;SDS011;44730;53.158;6.398;2022-10-26T03:12:50;16.58;;;11.80;;
58950;SDS011;44730;53.158;6.398;2022-10-26T03:15:16;16.92;;;12.20;;
58950;SDS011;44730;53.158;6.398;2022-10-26T03:17:42;15.63;;;12.10;;
58950;SDS011;44730;53.158;6.398;2022-10-26T03:20:08;18.80;;;12.32;;
58950;SDS011;44730;53.158;6.398;2022-10-26T03:22:34;17.33;;;11.98;;
58950;SDS011;44730;53.158;6.398;2022-10-26T03:25:00;18.25;;;11.85;;
58950;SDS011;44730;53.158;6.398;2022-10-26T03:27:26;17.02;;;11.77;;
58950;SDS011;44730;53.158;6.398;2022-10-26T03:29:52;17.17;;;12.55;;
58950;SDS011;44730;53.158;6.398;2022-10-26T03:32:18;16.45;;;11.77;;
58950;SDS011;44730;53.158;6.398;2022-10-26T03:34:44;19.40;;;13.45;;
58950;SDS011;44730;53.158;6.398;2022-10-26T03:37:10;17.73;;;13.20;;
58950;SDS011;44730;53.158;6.398;2022-10-26T03:39:35;19.17;;;13.23;;
58950;SDS011;44730;53.158;6.398;2022-10-26T03:42:01;17.15;;;13.05;;
58950;SDS011;44730;53.158;6.398;2022-10-26T03:44:27;20.77;;;13.07;;
58950;SDS011;44730;53.158;6.398;2022-10-26T03:46:53;18.13;;;12.95;;
58950;SDS011;44730;53.158;6.398;2022-10-26T03:49:18;18.08;;;12.70;;
58950;SDS011;44730;53.158;6.398;2022-10-26T03:51:44;18.25;;;12.90;;
58950;SDS011;44730;53.158;6.398;2022-10-26T03:54:09;16.65;;;13.52;;
58950;SDS011;44730;53.158;6.398;2022-10-26T03:56:35;17.90;;;13.43;;
58950;SDS011;44730;53.158;6.398;2022-10-26T03:59:01;18.17;;;14.05;;
58950;SDS011;44730;53.158;6.398;2022-10-26T04:01:27;19.23;;;14.60;;
58950;SDS011;44730;53.158;6.398;2022-10-26T04:03:53;21.60;;;14.95;;
58950;SDS011;44730;53.158;6.398;2022-10-26T04:06:18;23.77;;;14.50;;
58950;SDS011;44730;53.158;6.398;2022-10-26T04:08:44;20.13;;;14.48;;
58950;SDS011;44730;53.158;6.398;2022-10-26T04:11:10;17.85;;;13.10;;
58950;SDS011;44730;53.158;6.398;2022-10-26T04:13:35;20.20;;;15.10;;
58950;SDS011;44730;53.158;6.398;2022-10-26T04:16:01;20.73;;;14.85;;
58950;SDS011;44730;53.158;6.398;2022-10-26T04:18:27;21.27;;;14.93;;
58950;SDS011;44730;53.158;6.398;2022-10-26T04:20:52;22.13;;;14.95;;
58950;SDS011;44730;53.158;6.398;2022-10-26T04:23:18;27.00;;;15.38;;
58950;SDS011;44730;53.158;6.398;2022-10-26T04:25:45;18.27;;;14.65;;
58950;SDS011;44730;53.158;6.398;2022-10-26T04:28:11;20.45;;;15.57;;
58950;SDS011;44730;53.158;6.398;2022-10-26T04:30:38;19.80;;;15.27;;
58950;SDS011;44730;53.158;6.398;2022-10-26T04:33:04;20.77;;;15.05;;
58950;SDS011;44730;53.158;6.398;2022-10-26T04:35:30;17.70;;;14.80;;
58950;SDS011;44730;53.158;6.398;2022-10-26T04:37:57;22.83;;;16.30;;
58950;SDS011;44730;53.158;6.398;2022-10-26T04:40:24;21.67;;;16.55;;
58950;SDS011;44730;53.158;6.398;2022-10-26T04:42:49;20.95;;;16.15;;
58950;SDS011;44730;53.158;6.398;2022-10-26T04:45:15;23.50;;;16.83;;
58950;SDS011;44730;53.158;6.398;2022-10-26T04:47:41;22.45;;;17.02;;
58950;SDS011;44730;53.158;6.398;2022-10-26T04:50:07;24.92;;;17.25;;
58950;SDS011;44730;53.158;6.398;2022-10-26T04:52:35;20.67;;;15.88;;
58950;SDS011;44730;53.158;6.398;2022-10-26T04:55:02;22.23;;;16.52;;
58950;SDS011;44730;53.158;6.398;2022-10-26T04:57:30;19.75;;;15.77;;
58950;SDS011;44730;53.158;6.398;2022-10-26T04:59:57;21.80;;;16.50;;
58950;SDS011;44730;53.158;6.398;2022-10-26T05:02:24;22.00;;;16.55;;
58950;SDS011;44730;53.158;6.398;2022-10-26T05:04:49;22.58;;;17.15;;
58950;SDS011;44730;53.158;6.398;2022-10-26T05:07:15;19.85;;;16.02;;
58950;SDS011;44730;53.158;6.398;2022-10-26T05:09:41;21.50;;;16.58;;
58950;SDS011;44730;53.158;6.398;2022-10-26T05:12:07;20.25;;;15.68;;
58950;SDS011;44730;53.158;6.398;2022-10-26T05:14:33;20.35;;;15.23;;
58950;SDS011;44730;53.158;6.398;2022-10-26T05:16:58;23.15;;;16.05;;
58950;SDS011;44730;53.158;6.398;2022-10-26T05:19:24;23.60;;;15.98;;
58950;SDS011;44730;53.158;6.398;2022-10-26T05:21:55;22.20;;;16.77;;
58950;SDS011;44730;53.158;6.398;2022-10-26T05:24:21;23.55;;;16.30;;
58950;SDS011;44730;53.158;6.398;2022-10-26T05:26:46;19.38;;;15.70;;
58950;SDS011;44730;53.158;6.398;2022-10-26T05:29:12;20.95;;;15.23;;
58950;SDS011;44730;53.158;6.398;2022-10-26T05:31:38;22.63;;;15.80;;
58950;SDS011;44730;53.158;6.398;2022-10-26T05:34:03;21.77;;;15.35;;
58950;SDS011;44730;53.158;6.398;2022-10-26T05:36:29;23.70;;;15.57;;
58950;SDS011;44730;53.158;6.398;2022-10-26T05:38:56;20.58;;;14.90;;
58950;SDS011;44730;53.158;6.398;2022-10-26T05:41:22;19.73;;;15.13;;
58950;SDS011;44730;53.158;6.398;2022-10-26T05:43:48;18.38;;;14.88;;
58950;SDS011;44730;53.158;6.398;2022-10-26T05:46:14;20.25;;;14.52;;
58950;SDS011;44730;53.158;6.398;2022-10-26T05:48:39;21.42;;;15.63;;
58950;SDS011;44730;53.158;6.398;2022-10-26T05:51:05;19.77;;;14.63;;
58950;SDS011;44730;53.158;6.398;2022-10-26T05:53:31;19.75;;;14.20;;
58950;SDS011;44730;53.158;6.398;2022-10-26T05:55:57;20.33;;;15.90;;
58950;SDS011;44730;53.158;6.398;2022-10-26T05:58:23;21.58;;;15.73;;
58950;SDS011;44730;53.158;6.398;2022-10-26T06:06:14;23.15;;;15.88;;
58950;SDS011;44730;53.158;6.398;2022-10-26T06:08:40;21.85;;;14.93;;
58950;SDS011;44730;53.158;6.398;2022-10-26T06:11:07;18.63;;;14.90;;
58950;SDS011;44730;53.158;6.398;2022-10-26T06:13:33;19.00;;;14.45;;
58950;SDS011;44730;53.158;6.398;2022-10-26T06:16:10;19.77;;;14.93;;
58950;SDS011;44730;53.158;6.398;2022-10-26T06:18:54;20.13;;;14.93;;
58950;SDS011;44730;53.158;6.398;2022-10-26T06:21:59;18.10;;;13.85;;
58950;SDS011;44730;53.158;6.398;2022-10-26T06:30:23;19.60;;;14.45;;
58950;SDS011;44730;53.158;6.398;2022-10-26T06:32:49;19.02;;;14.90;;
58950;SDS011;44730;53.158;6.398;2022-10-26T06:37:51;18.55;;;13.50;;
58950;SDS011;44730;53.158;6.398;2022-10-26T06:40:19;22.80;;;14.30;;
58950;SDS011;44730;53.158;6.398;2022-10-26T06:42:46;19.73;;;13.77;;
58950;SDS011;44730;53.158;6.398;2022-10-26T06:45:12;21.73;;;12.80;;
58950;SDS011;44730;53.158;6.398;2022-10-26T06:50:37;18.00;;;12.50;;
58950;SDS011;44730;53.158;6.398;2022-10-26T06:56:01;16.00;;;10.30;;
58950;SDS011;44730;53.158;6.398;2022-10-26T06:58:28;18.88;;;11.63;;
58950;SDS011;44730;53.158;6.398;2022-10-26T07:00:57;14.52;;;10.10;;
58950;SDS011;44730;53.158;6.398;2022-10-26T07:03:23;14.88;;;10.77;;
58950;SDS011;44730;53.158;6.398;2022-10-26T07:05:48;14.85;;;9.68;;
58950;SDS011;44730;53.158;6.398;2022-10-26T07:08:14;14.48;;;9.70;;
58950;SDS011;44730;53.158;6.398;2022-10-26T07:10:40;16.15;;;10.27;;
58950;SDS011;44730;53.158;6.398;2022-10-26T07:13:07;15.50;;;10.23;;
58950;SDS011;44730;53.158;6.398;2022-10-26T07:15:34;15.35;;;9.73;;
58950;SDS011;44730;53.158;6.398;2022-10-26T07:18:01;19.55;;;8.98;;
58950;SDS011;44730;53.158;6.398;2022-10-26T07:20:33;17.23;;;9.90;;
58950;SDS011;44730;53.158;6.398;2022-10-26T07:23:01;13.00;;;9.88;;
58950;SDS011;44730;53.158;6.398;2022-10-26T07:25:27;14.38;;;9.32;;
58950;SDS011;44730;53.158;6.398;2022-10-26T07:27:57;14.18;;;9.07;;
58950;SDS011;44730;53.158;6.398;2022-10-26T07:30:23;11.68;;;8.60;;
58950;SDS011;44730;53.158;6.398;2022-10-26T07:32:59;13.73;;;8.60;;
58950;SDS011;44730;53.158;6.398;2022-10-26T07:35:26;12.23;;;7.60;;
58950;SDS011;44730;53.158;6.398;2022-10-26T07:37:54;13.68;;;9.15;;
58950;SDS011;44730;53.158;6.398;2022-10-26T07:40:23;13.73;;;9.50;;
58950;SDS011;44730;53.158;6.398;2022-10-26T07:42:50;13.15;;;9.15;;
58950;SDS011;44730;53.158;6.398;2022-10-26T07:45:16;12.77;;;8.02;;
58950;SDS011;44730;53.158;6.398;2022-10-26T07:47:42;13.48;;;8.32;;
58950;SDS011;44730;53.158;6.398;2022-10-26T07:50:08;12.20;;;6.90;;
58950;SDS011;44730;53.158;6.398;2022-10-26T07:52:36;11.48;;;8.07;;
58950;SDS011;44730;53.158;6.398;2022-10-26T07:55:03;12.48;;;7.53;;
58950;SDS011;44730;53.158;6.398;2022-10-26T07:57:29;11.32;;;7.38;;
58950;SDS011;44730;53.158;6.398;2022-10-26T07:59:55;10.85;;;6.68;;
58950;SDS011;44730;53.158;6.398;2022-10-26T08:02:20;10.88;;;6.97;;
58950;SDS011;44730;53.158;6.398;2022-10-26T08:04:46;11.35;;;6.85;;
58950;SDS011;44730;53.158;6.398;2022-10-26T08:07:12;9.30;;;6.10;;
58950;SDS011;44730;53.158;6.398;2022-10-26T08:09:37;9.43;;;6.82;;
58950;SDS011;44730;53.158;6.398;2022-10-26T08:12:03;9.60;;;6.40;;
58950;SDS011;44730;53.158;6.398;2022-10-26T08:14:29;9.43;;;5.80;;
58950;SDS011;44730;53.158;6.398;2022-10-26T08:16:54;10.63;;;5.80;;
58950;SDS011;44730;53.158;6.398;2022-10-26T08:19:20;9.23;;;5.72;;
58950;SDS011;44730;53.158;6.398;2022-10-26T08:21:46;10.77;;;5.97;;
58950;SDS011;44730;53.158;6.398;2022-10-26T08:24:11;6.03;;;4.85;;
58950;SDS011;44730;53.158;6.398;2022-10-26T08:26:37;6.53;;;5.13;;
58950;SDS011;44730;53.158;6.398;2022-10-26T08:29:03;6.50;;;4.40;;
58950;SDS011;44730;53.158;6.398;2022-10-26T08:31:28;5.82;;;4.18;;
58950;SDS011;44730;53.158;6.398;2022-10-26T08:33:54;6.68;;;3.78;;
58950;SDS011;44730;53.158;6.398;2022-10-26T08:36:22;6.80;;;3.80;;
58950;SDS011;44730;53.158;6.398;2022-10-26T08:38:49;6.70;;;4.03;;
58950;SDS011;44730;53.158;6.398;2022-10-26T08:41:16;5.60;;;3.88;;
58950;SDS011;44730;53.158;6.398;2022-10-26T08:43:53;5.70;;;4.00;;
58950;SDS011;44730;53.158;6.398;2022-10-26T08:46:28;4.65;;;3.30;;
58950;SDS011;44730;53.158;6.398;2022-10-26T08:51:48;5.40;;;3.15;;
58950;SDS011;44730;53.158;6.398;2022-10-26T08:54:20;4.05;;;3.28;;
58950;SDS011;44730;53.158;6.398;2022-10-26T08:56:51;4.63;;;3.15;;
58950;SDS011;44730;53.158;6.398;2022-10-26T09:02:12;4.95;;;3.30;;
58950;SDS011;44730;53.158;6.398;2022-10-26T09:04:39;5.30;;;3.30;;
58950;SDS011;44730;53.158;6.398;2022-10-26T09:07:08;4.43;;;3.20;;
58950;SDS011;44730;53.158;6.398;2022-10-26T09:12:14;4.75;;;3.15;;
58950;SDS011;44730;53.158;6.398;2022-10-26T09:22:38;3.88;;;2.95;;
58950;SDS011;44730;53.158;6.398;2022-10-26T09:25:18;3.78;;;2.80;;
58950;SDS011;44730;53.158;6.398;2022-10-26T09:27:46;7.43;;;3.08;;
58950;SDS011;44730;53.158;6.398;2022-10-26T09:30:24;5.57;;;2.80;;
58950;SDS011;44730;53.158;6.398;2022-10-26T09:32:55;6.05;;;3.20;;
58950;SDS011;44730;53.158;6.398;2022-10-26T09:38:26;8.02;;;3.25;;
58950;SDS011;44730;53.158;6.398;2022-10-26T09:41:09;4.75;;;3.10;;
58950;SDS011;44730;53.158;6.398;2022-10-26T09:43:47;5.63;;;3.17;;
58950;SDS011;44730;53.158;6.398;2022-10-26T09:46:20;4.70;;;3.05;;
58950;SDS011;44730;53.158;6.398;2022-10-26T09:49:00;4.97;;;3.17;;
58950;SDS011;44730;53.158;6.398;2022-10-26T09:51:31;5.15;;;3.67;;
58950;SDS011;44730;53.158;6.398;2022-10-26T09:54:00;6.68;;;3.40;;
58950;SDS011;44730;53.158;6.398;2022-10-26T09:56:27;6.70;;;3.58;;
58950;SDS011;44730;53.158;6.398;2022-10-26T09:58:59;5.13;;;3.25;;
58950;SDS011;44730;53.158;6.398;2022-10-26T10:01:29;6.57;;;3.40;;
58950;SDS011;44730;53.158;6.398;2022-10-26T10:06:44;8.07;;;3.60;;
58950;SDS011;44730;53.158;6.398;2022-10-26T10:11:42;5.03;;;3.47;;
58950;SDS011;44730;53.158;6.398;2022-10-26T10:14:12;4.78;;;3.67;;
58950;SDS011;44730;53.158;6.398;2022-10-26T10:16:41;4.65;;;3.45;;
58950;SDS011;44730;53.158;6.398;2022-10-26T10:19:19;4.82;;;3.40;;
58950;SDS011;44730;53.158;6.398;2022-10-26T10:21:48;6.07;;;3.72;;
58950;SDS011;44730;53.158;6.398;2022-10-26T10:24:35;4.82;;;3.17;;
58950;SDS011;44730;53.158;6.398;2022-10-26T10:29:42;6.53;;;3.50;;
58950;SDS011;44730;53.158;6.398;2022-10-26T10:34:46;4.15;;;2.92;;
58950;SDS011;44730;53.158;6.398;2022-10-26T10:37:34;4.75;;;3.05;;
58950;SDS011;44730;53.158;6.398;2022-10-26T10:42:34;4.90;;;2.95;;
58950;SDS011;44730;53.158;6.398;2022-10-26T10:45:01;5.22;;;3.20;;
58950;SDS011;44730;53.158;6.398;2022-10-26T10:47:29;3.70;;;2.53;;
58950;SDS011;44730;53.158;6.398;2022-10-26T10:50:04;3.72;;;2.65;;
58950;SDS011;44730;53.158;6.398;2022-10-26T10:52:36;4.05;;;2.90;;
58950;SDS011;44730;53.158;6.398;2022-10-26T10:55:06;3.50;;;2.30;;
58950;SDS011;44730;53.158;6.398;2022-10-26T11:00:21;9.20;;;3.10;;
58950;SDS011;44730;53.158;6.398;2022-10-26T11:02:50;6.35;;;2.42;;
58950;SDS011;44730;53.158;6.398;2022-10-26T11:08:44;3.35;;;2.60;;
58950;SDS011;44730;53.158;6.398;2022-10-26T11:14:01;3.92;;;2.53;;
58950;SDS011;44730;53.158;6.398;2022-10-26T11:16:40;3.85;;;2.42;;
58950;SDS011;44730;53.158;6.398;2022-10-26T11:21:45;4.72;;;2.30;;
58950;SDS011;44730;53.158;6.398;2022-10-26T11:27:11;4.57;;;2.20;;
58950;SDS011;44730;53.158;6.398;2022-10-26T11:29:42;5.13;;;2.60;;
58950;SDS011;44730;53.158;6.398;2022-10-26T11:40:44;4.55;;;2.90;;
58950;SDS011;44730;53.158;6.398;2022-10-26T11:46:03;6.30;;;2.42;;
58950;SDS011;44730;53.158;6.398;2022-10-26T11:48:36;7.18;;;2.60;;
58950;SDS011;44730;53.158;6.398;2022-10-26T11:51:14;7.05;;;2.70;;
58950;SDS011;44730;53.158;6.398;2022-10-26T11:53:44;3.80;;;2.70;;
58950;SDS011;44730;53.158;6.398;2022-10-26T11:56:15;6.47;;;2.50;;
58950;SDS011;44730;53.158;6.398;2022-10-26T11:58:46;5.30;;;2.60;;
58950;SDS011;44730;53.158;6.398;2022-10-26T12:01:13;5.80;;;2.88;;
58950;SDS011;44730;53.158;6.398;2022-10-26T12:03:41;4.85;;;2.88;;
58950;SDS011;44730;53.158;6.398;2022-10-26T12:06:10;4.90;;;2.80;;
58950;SDS011;44730;53.158;6.398;2022-10-26T12:08:42;4.30;;;2.90;;
58950;SDS011;44730;53.158;6.398;2022-10-26T12:11:33;5.88;;;2.88;;
58950;SDS011;44730;53.158;6.398;2022-10-26T12:14:02;5.18;;;2.80;;
58950;SDS011;44730;53.158;6.398;2022-10-26T12:16:52;7.05;;;2.85;;
58950;SDS011;44730;53.158;6.398;2022-10-26T12:19:59;5.60;;;3.35;;
58950;SDS011;44730;53.158;6.398;2022-10-26T12:22:39;4.93;;;3.13;;
58950;SDS011;44730;53.158;6.398;2022-10-26T12:25:06;7.65;;;3.15;;
58950;SDS011;44730;53.158;6.398;2022-10-26T12:35:28;6.72;;;3.17;;
58950;SDS011;44730;53.158;6.398;2022-10-26T12:37:55;7.80;;;3.33;;
58950;SDS011;44730;53.158;6.398;2022-10-26T12:42:56;8.32;;;4.00;;
58950;SDS011;44730;53.158;6.398;2022-10-26T12:45:43;4.63;;;2.80;;
58950;SDS011;44730;53.158;6.398;2022-10-26T12:50:49;8.05;;;3.97;;
58950;SDS011;44730;53.158;6.398;2022-10-26T12:53:16;5.57;;;3.67;;
58950;SDS011;44730;53.158;6.398;2022-10-26T12:58:17;7.07;;;3.85;;
58950;SDS011;44730;53.158;6.398;2022-10-26T13:00:50;6.35;;;3.92;;
58950;SDS011;44730;53.158;6.398;2022-10-26T13:04:19;6.07;;;4.03;;
58950;SDS011;44730;53.158;6.398;2022-10-26T13:06:30;4.88;;;4.00;;
58950;SDS011;44730;53.158;6.398;2022-10-26T13:09:18;7.57;;;4.35;;
58950;SDS011;44730;53.158;6.398;2022-10-26T13:11:50;7.60;;;4.68;;
58950;SDS011;44730;53.158;6.398;2022-10-26T13:14:25;7.28;;;5.38;;
58950;SDS011;44730;53.158;6.398;2022-10-26T13:16:57;7.25;;;4.93;;
58950;SDS011;44730;53.158;6.398;2022-10-26T13:21:56;8.07;;;5.30;;
58950;SDS011;44730;53.158;6.398;2022-10-26T13:24:25;7.22;;;4.88;;
58950;SDS011;44730;53.158;6.398;2022-10-26T13:29:32;6.63;;;5.75;;
58950;SDS011;44730;53.158;6.398;2022-10-26T13:32:37;10.82;;;5.47;;
58950;SDS011;44730;53.158;6.398;2022-10-26T13:35:08;9.80;;;5.80;;
58950;SDS011;44730;53.158;6.398;2022-10-26T13:37:39;13.77;;;5.75;;
58950;SDS011;44730;53.158;6.398;2022-10-26T13:40:09;9.75;;;5.63;;
58950;SDS011;44730;53.158;6.398;2022-10-26T13:48:18;9.23;;;6.35;;
58950;SDS011;44730;53.158;6.398;2022-10-26T13:50:48;9.45;;;5.75;;
58950;SDS011;44730;53.158;6.398;2022-10-26T13:53:26;7.63;;;5.38;;
58950;SDS011;44730;53.158;6.398;2022-10-26T13:59:19;10.15;;;6.03;;
58950;SDS011;44730;53.158;6.398;2022-10-26T14:01:41;8.82;;;5.18;;
58950;SDS011;44730;53.158;6.398;2022-10-26T14:06:51;7.53;;;5.10;;
58950;SDS011;44730;53.158;6.398;2022-10-26T14:09:18;8.23;;;4.93;;
58950;SDS011;44730;53.158;6.398;2022-10-26T14:11:48;6.45;;;4.82;;
58950;SDS011;44730;53.158;6.398;2022-10-26T14:14:33;7.30;;;5.40;;
58950;SDS011;44730;53.158;6.398;2022-10-26T14:17:01;7.70;;;5.25;;
58950;SDS011;44730;53.158;6.398;2022-10-26T14:19:38;6.10;;;5.10;;
58950;SDS011;44730;53.158;6.398;2022-10-26T14:22:04;9.18;;;5.35;;
58950;SDS011;44730;53.158;6.398;2022-10-26T14:24:35;9.63;;;5.00;;
58950;SDS011;44730;53.158;6.398;2022-10-26T14:27:12;7.28;;;4.93;;
58950;SDS011;44730;53.158;6.398;2022-10-26T14:29:39;10.45;;;4.97;;
58950;SDS011;44730;53.158;6.398;2022-10-26T14:34:54;9.23;;;5.47;;
58950;SDS011;44730;53.158;6.398;2022-10-26T14:37:29;7.13;;;5.53;;
58950;SDS011;44730;53.158;6.398;2022-10-26T14:40:11;10.85;;;5.70;;
58950;SDS011;44730;53.158;6.398;2022-10-26T14:42:47;9.20;;;5.13;;
58950;SDS011;44730;53.158;6.398;2022-10-26T14:47:59;6.22;;;5.47;;
58950;SDS011;44730;53.158;6.398;2022-10-26T14:50:25;8.63;;;6.45;;
58950;SDS011;44730;53.158;6.398;2022-10-26T14:53:02;7.35;;;6.45;;
58950;SDS011;44730;53.158;6.398;2022-10-26T14:55:47;9.80;;;6.57;;
58950;SDS011;44730;53.158;6.398;2022-10-26T14:58:17;8.43;;;6.53;;
58950;SDS011;44730;53.158;6.398;2022-10-26T15:01:12;8.98;;;7.07;;
58950;SDS011;44730;53.158;6.398;2022-10-26T15:03:47;8.40;;;7.55;;
58950;SDS011;44730;53.158;6.398;2022-10-26T15:08:57;8.55;;;7.65;;
58950;SDS011;44730;53.158;6.398;2022-10-26T15:11:24;9.57;;;8.00;;
58950;SDS011;44730;53.158;6.398;2022-10-26T15:13:51;12.23;;;8.93;;
58950;SDS011;44730;53.158;6.398;2022-10-26T15:16:19;11.57;;;8.82;;
58950;SDS011;44730;53.158;6.398;2022-10-26T15:18:47;10.82;;;8.15;;
58950;SDS011;44730;53.158;6.398;2022-10-26T15:23:54;12.20;;;9.55;;
58950;SDS011;44730;53.158;6.398;2022-10-26T15:26:22;11.48;;;9.07;;
58950;SDS011;44730;53.158;6.398;2022-10-26T15:28:48;11.13;;;9.25;;
58950;SDS011;44730;53.158;6.398;2022-10-26T15:33:40;12.40;;;9.95;;
58950;SDS011;44730;53.158;6.398;2022-10-26T15:36:15;13.95;;;9.98;;
58950;SDS011;44730;53.158;6.398;2022-10-26T15:38:45;11.00;;;9.38;;
58950;SDS011;44730;53.158;6.398;2022-10-26T15:41:23;12.15;;;9.80;;
58950;SDS011;44730;53.158;6.398;2022-10-26T15:43:53;10.65;;;9.10;;
58950;SDS011;44730;53.158;6.398;2022-10-26T15:46:21;11.43;;;9.10;;
58950;SDS011;44730;53.158;6.398;2022-10-26T15:48:57;11.98;;;9.50;;
58950;SDS011;44730;53.158;6.398;2022-10-26T15:51:24;13.73;;;9.85;;
58950;SDS011;44730;53.158;6.398;2022-10-26T15:53:50;10.45;;;8.60;;
58950;SDS011;44730;53.158;6.398;2022-10-26T15:56:17;9.82;;;8.68;;
58950;SDS011;44730;53.158;6.398;2022-10-26T15:58:44;14.40;;;9.52;;
58950;SDS011;44730;53.158;6.398;2022-10-26T16:01:17;12.77;;;8.38;;
58950;SDS011;44730;53.158;6.398;2022-10-26T16:03:44;22.52;;;9.43;;
58950;SDS011;44730;53.158;6.398;2022-10-26T16:06:17;9.93;;;7.97;;
58950;SDS011;44730;53.158;6.398;2022-10-26T16:08:51;10.23;;;8.02;;
58950;SDS011;44730;53.158;6.398;2022-10-26T16:11:19;10.75;;;7.70;;
58950;SDS011;44730;53.158;6.398;2022-10-26T16:13:45;8.73;;;7.82;;
58950;SDS011;44730;53.158;6.398;2022-10-26T16:16:17;9.65;;;7.18;;
58950;SDS011;44730;53.158;6.398;2022-10-26T16:18:44;9.70;;;7.57;;
58950;SDS011;44730;53.158;6.398;2022-10-26T16:21:11;11.45;;;7.57;;
58950;SDS011;44730;53.158;6.398;2022-10-26T16:23:38;8.82;;;6.85;;
58950;SDS011;44730;53.158;6.398;2022-10-26T16:26:04;12.10;;;7.43;;
58950;SDS011;44730;53.158;6.398;2022-10-26T16:28:30;8.65;;;7.32;;
58950;SDS011;44730;53.158;6.398;2022-10-26T16:30:59;8.55;;;6.65;;
58950;SDS011;44730;53.158;6.398;2022-10-26T16:33:25;8.88;;;7.07;;
58950;SDS011;44730;53.158;6.398;2022-10-26T16:35:54;9.02;;;7.22;;
58950;SDS011;44730;53.158;6.398;2022-10-26T16:38:21;9.43;;;6.43;;
58950;SDS011;44730;53.158;6.398;2022-10-26T16:40:47;9.65;;;7.32;;
58950;SDS011;44730;53.158;6.398;2022-10-26T16:43:12;8.23;;;6.75;;
58950;SDS011;44730;53.158;6.398;2022-10-26T16:45:39;8.07;;;6.82;;
58950;SDS011;44730;53.158;6.398;2022-10-26T16:48:06;8.57;;;6.78;;
58950;SDS011;44730;53.158;6.398;2022-10-26T16:50:38;14.32;;;7.10;;
58950;SDS011;44730;53.158;6.398;2022-10-26T16:53:04;8.68;;;7.15;;
58950;SDS011;44730;53.158;6.398;2022-10-26T16:55:29;8.13;;;6.47;;
58950;SDS011;44730;53.158;6.398;2022-10-26T16:57:55;9.88;;;6.28;;
58950;SDS011;44730;53.158;6.398;2022-10-26T17:00:21;7.38;;;6.68;;
58950;SDS011;44730;53.158;6.398;2022-10-26T17:02:46;10.52;;;6.93;;
58950;SDS011;44730;53.158;6.398;2022-10-26T17:05:12;9.30;;;7.10;;
58950;SDS011;44730;53.158;6.398;2022-10-26T17:07:38;10.13;;;7.28;;
58950;SDS011;44730;53.158;6.398;2022-10-26T17:10:04;12.13;;;7.63;;
58950;SDS011;44730;53.158;6.398;2022-10-26T17:12:30;10.98;;;6.75;;
58950;SDS011;44730;53.158;6.398;2022-10-26T17:14:55;9.63;;;7.60;;
58950;SDS011;44730;53.158;6.398;2022-10-26T17:17:23;11.10;;;6.82;;
58950;SDS011;44730;53.158;6.398;2022-10-26T17:19:49;8.32;;;6.78;;
58950;SDS011;44730;53.158;6.398;2022-10-26T17:22:14;9.77;;;7.15;;